sensor_id;sensor_type;location;lat;lon;timestamp;P1;durP1;ratioP1;P2;durP2;ratioP2
19278;SDS011;9773;47.062;15.446;2023-05-16T00:00:41;2.47;;;2.00;;
19278;SDS011;9773;47.062;15.446;2023-05-16T00:03:07;1.80;;;1.70;;
19278;SDS011;9773;47.062;15.446;2023-05-16T00:05:36;2.03;;;1.93;;
19278;SDS011;9773;47.062;15.446;2023-05-16T00:08:01;3.03;;;1.73;;
19278;SDS011;9773;47.062;15.446;2023-05-16T00:10:27;1.90;;;1.80;;
19278;SDS011;9773;47.062;15.446;2023-05-16T00:12:53;2.07;;;1.90;;
19278;SDS011;9773;47.062;15.446;2023-05-16T00:15:20;2.30;;;1.80;;
19278;SDS011;9773;47.062;15.446;2023-05-16T00:17:47;1.73;;;1.63;;
19278;SDS011;9773;47.062;15.446;2023-05-16T00:20:13;2.80;;;1.97;;
19278;SDS011;9773;47.062;15.446;2023-05-16T00:22:41;1.70;;;1.70;;
19278;SDS011;9773;47.062;15.446;2023-05-16T00:25:07;1.83;;;1.73;;
19278;SDS011;9773;47.062;15.446;2023-05-16T00:27:34;1.80;;;1.80;;
19278;SDS011;9773;47.062;15.446;2023-05-16T00:30:03;1.60;;;1.60;;
19278;SDS011;9773;47.062;15.446;2023-05-16T00:32:30;2.27;;;1.70;;
19278;SDS011;9773;47.062;15.446;2023-05-16T00:34:56;2.07;;;1.97;;
19278;SDS011;9773;47.062;15.446;2023-05-16T00:37:22;2.10;;;2.00;;
19278;SDS011;9773;47.062;15.446;2023-05-16T00:39:47;1.90;;;1.80;;
19278;SDS011;9773;47.062;15.446;2023-05-16T00:42:13;1.67;;;1.67;;
19278;SDS011;9773;47.062;15.446;2023-05-16T00:44:39;2.20;;;1.87;;
19278;SDS011;9773;47.062;15.446;2023-05-16T00:47:05;1.90;;;1.80;;
19278;SDS011;9773;47.062;15.446;2023-05-16T00:49:32;2.40;;;2.20;;
19278;SDS011;9773;47.062;15.446;2023-05-16T00:51:58;2.07;;;1.97;;
19278;SDS011;9773;47.062;15.446;2023-05-16T00:54:24;2.00;;;1.90;;
19278;SDS011;9773;47.062;15.446;2023-05-16T00:56:53;1.80;;;1.70;;
19278;SDS011;9773;47.062;15.446;2023-05-16T00:59:20;2.13;;;2.00;;
19278;SDS011;9773;47.062;15.446;2023-05-16T01:01:46;2.10;;;1.90;;
19278;SDS011;9773;47.062;15.446;2023-05-16T01:04:12;2.70;;;2.07;;
19278;SDS011;9773;47.062;15.446;2023-05-16T01:06:38;1.70;;;1.70;;
19278;SDS011;9773;47.062;15.446;2023-05-16T01:09:05;2.30;;;2.20;;
19278;SDS011;9773;47.062;15.446;2023-05-16T01:14:31;1.93;;;1.83;;
19278;SDS011;9773;47.062;15.446;2023-05-16T01:23:03;4.93;;;2.57;;
19278;SDS011;9773;47.062;15.446;2023-05-16T01:28:15;2.07;;;1.97;;
19278;SDS011;9773;47.062;15.446;2023-05-16T01:30:42;2.40;;;2.30;;
19278;SDS011;9773;47.062;15.446;2023-05-16T01:33:08;2.97;;;2.40;;
19278;SDS011;9773;47.062;15.446;2023-05-16T01:35:54;2.30;;;2.20;;
19278;SDS011;9773;47.062;15.446;2023-05-16T01:38:25;2.33;;;2.10;;
19278;SDS011;9773;47.062;15.446;2023-05-16T01:41:07;2.63;;;2.43;;
19278;SDS011;9773;47.062;15.446;2023-05-16T01:43:47;2.93;;;2.10;;
19278;SDS011;9773;47.062;15.446;2023-05-16T01:46:23;2.37;;;2.17;;
19278;SDS011;9773;47.062;15.446;2023-05-16T01:49:00;2.10;;;2.00;;
19278;SDS011;9773;47.062;15.446;2023-05-16T01:51:50;2.47;;;2.37;;
19278;SDS011;9773;47.062;15.446;2023-05-16T01:54:19;2.40;;;2.20;;
19278;SDS011;9773;47.062;15.446;2023-05-16T01:56:50;2.20;;;2.00;;
19278;SDS011;9773;47.062;15.446;2023-05-16T01:59:18;2.50;;;2.00;;
19278;SDS011;9773;47.062;15.446;2023-05-16T02:01:45;2.53;;;2.30;;
19278;SDS011;9773;47.062;15.446;2023-05-16T02:04:12;2.20;;;2.10;;
19278;SDS011;9773;47.062;15.446;2023-05-16T02:06:39;2.30;;;2.20;;
19278;SDS011;9773;47.062;15.446;2023-05-16T02:09:06;2.37;;;2.20;;
19278;SDS011;9773;47.062;15.446;2023-05-16T02:11:32;2.23;;;2.13;;
19278;SDS011;9773;47.062;15.446;2023-05-16T02:13:58;2.73;;;2.20;;
19278;SDS011;9773;47.062;15.446;2023-05-16T02:16:24;2.13;;;2.00;;
19278;SDS011;9773;47.062;15.446;2023-05-16T02:18:49;4.50;;;2.70;;
19278;SDS011;9773;47.062;15.446;2023-05-16T02:21:15;2.53;;;2.20;;
19278;SDS011;9773;47.062;15.446;2023-05-16T02:23:41;2.27;;;2.17;;
19278;SDS011;9773;47.062;15.446;2023-05-16T02:26:08;2.20;;;2.10;;
19278;SDS011;9773;47.062;15.446;2023-05-16T02:28:34;2.30;;;2.20;;
19278;SDS011;9773;47.062;15.446;2023-05-16T02:30:59;2.20;;;2.10;;
19278;SDS011;9773;47.062;15.446;2023-05-16T02:33:26;2.40;;;2.20;;
19278;SDS011;9773;47.062;15.446;2023-05-16T02:35:53;4.00;;;2.13;;
19278;SDS011;9773;47.062;15.446;2023-05-16T02:38:19;2.20;;;2.10;;
19278;SDS011;9773;47.062;15.446;2023-05-16T02:40:47;2.37;;;2.17;;
19278;SDS011;9773;47.062;15.446;2023-05-16T02:43:14;4.03;;;2.40;;
19278;SDS011;9773;47.062;15.446;2023-05-16T02:45:40;2.40;;;2.30;;
19278;SDS011;9773;47.062;15.446;2023-05-16T02:48:05;7.80;;;2.37;;
19278;SDS011;9773;47.062;15.446;2023-05-16T02:50:32;2.97;;;2.70;;
19278;SDS011;9773;47.062;15.446;2023-05-16T02:52:58;2.53;;;2.43;;
19278;SDS011;9773;47.062;15.446;2023-05-16T02:55:26;2.43;;;2.23;;
19278;SDS011;9773;47.062;15.446;2023-05-16T02:57:52;2.43;;;2.33;;
19278;SDS011;9773;47.062;15.446;2023-05-16T03:00:18;2.33;;;2.10;;
19278;SDS011;9773;47.062;15.446;2023-05-16T03:02:44;2.80;;;2.60;;
19278;SDS011;9773;47.062;15.446;2023-05-16T03:05:11;2.20;;;2.10;;
19278;SDS011;9773;47.062;15.446;2023-05-16T03:07:37;2.53;;;2.30;;
19278;SDS011;9773;47.062;15.446;2023-05-16T03:10:03;2.50;;;2.40;;
19278;SDS011;9773;47.062;15.446;2023-05-16T03:12:31;2.70;;;2.60;;
19278;SDS011;9773;47.062;15.446;2023-05-16T03:14:56;2.27;;;2.17;;
19278;SDS011;9773;47.062;15.446;2023-05-16T03:17:22;3.20;;;2.10;;
19278;SDS011;9773;47.062;15.446;2023-05-16T03:19:48;2.53;;;2.40;;
19278;SDS011;9773;47.062;15.446;2023-05-16T03:22:14;2.20;;;2.10;;
19278;SDS011;9773;47.062;15.446;2023-05-16T03:24:40;2.50;;;2.37;;
19278;SDS011;9773;47.062;15.446;2023-05-16T03:27:05;2.70;;;2.50;;
19278;SDS011;9773;47.062;15.446;2023-05-16T03:29:32;2.77;;;2.60;;
19278;SDS011;9773;47.062;15.446;2023-05-16T03:31:57;2.60;;;2.50;;
19278;SDS011;9773;47.062;15.446;2023-05-16T03:34:23;3.10;;;2.70;;
19278;SDS011;9773;47.062;15.446;2023-05-16T03:36:49;2.33;;;2.13;;
19278;SDS011;9773;47.062;15.446;2023-05-16T03:39:15;2.20;;;2.10;;
19278;SDS011;9773;47.062;15.446;2023-05-16T03:41:41;4.03;;;2.10;;
19278;SDS011;9773;47.062;15.446;2023-05-16T03:44:07;2.30;;;2.20;;
19278;SDS011;9773;47.062;15.446;2023-05-16T03:46:33;3.07;;;2.27;;
19278;SDS011;9773;47.062;15.446;2023-05-16T03:49:00;2.83;;;2.57;;
19278;SDS011;9773;47.062;15.446;2023-05-16T03:51:26;2.43;;;2.23;;
19278;SDS011;9773;47.062;15.446;2023-05-16T03:53:52;2.60;;;2.40;;
19278;SDS011;9773;47.062;15.446;2023-05-16T03:56:18;2.57;;;2.37;;
19278;SDS011;9773;47.062;15.446;2023-05-16T03:58:45;2.83;;;2.40;;
19278;SDS011;9773;47.062;15.446;2023-05-16T04:01:11;2.13;;;2.03;;
19278;SDS011;9773;47.062;15.446;2023-05-16T04:03:37;6.10;;;2.60;;
19278;SDS011;9773;47.062;15.446;2023-05-16T04:06:03;2.50;;;2.37;;
19278;SDS011;9773;47.062;15.446;2023-05-16T04:08:31;2.57;;;2.47;;
19278;SDS011;9773;47.062;15.446;2023-05-16T04:10:56;2.80;;;2.60;;
19278;SDS011;9773;47.062;15.446;2023-05-16T04:13:22;2.60;;;2.40;;
19278;SDS011;9773;47.062;15.446;2023-05-16T04:15:48;2.40;;;2.30;;
19278;SDS011;9773;47.062;15.446;2023-05-16T04:18:14;2.23;;;2.13;;
19278;SDS011;9773;47.062;15.446;2023-05-16T04:20:42;3.07;;;2.87;;
19278;SDS011;9773;47.062;15.446;2023-05-16T04:23:08;2.37;;;2.23;;
19278;SDS011;9773;47.062;15.446;2023-05-16T04:25:37;2.97;;;2.50;;
19278;SDS011;9773;47.062;15.446;2023-05-16T04:28:03;3.40;;;2.50;;
19278;SDS011;9773;47.062;15.446;2023-05-16T04:30:29;3.07;;;2.60;;
19278;SDS011;9773;47.062;15.446;2023-05-16T04:32:55;3.10;;;2.80;;
19278;SDS011;9773;47.062;15.446;2023-05-16T04:35:23;2.90;;;2.70;;
19278;SDS011;9773;47.062;15.446;2023-05-16T04:37:49;4.17;;;2.60;;
19278;SDS011;9773;47.062;15.446;2023-05-16T04:40:15;4.93;;;2.67;;
19278;SDS011;9773;47.062;15.446;2023-05-16T04:42:41;2.90;;;2.67;;
19278;SDS011;9773;47.062;15.446;2023-05-16T04:45:07;2.70;;;2.50;;
19278;SDS011;9773;47.062;15.446;2023-05-16T04:47:35;2.80;;;2.60;;
19278;SDS011;9773;47.062;15.446;2023-05-16T04:50:02;3.30;;;2.47;;
19278;SDS011;9773;47.062;15.446;2023-05-16T04:52:29;2.40;;;2.20;;
19278;SDS011;9773;47.062;15.446;2023-05-16T04:54:55;2.60;;;2.47;;
19278;SDS011;9773;47.062;15.446;2023-05-16T04:57:20;3.00;;;2.77;;
19278;SDS011;9773;47.062;15.446;2023-05-16T04:59:46;3.10;;;2.90;;
19278;SDS011;9773;47.062;15.446;2023-05-16T05:02:12;3.33;;;2.93;;
19278;SDS011;9773;47.062;15.446;2023-05-16T05:04:38;3.37;;;2.63;;
19278;SDS011;9773;47.062;15.446;2023-05-16T05:07:03;2.63;;;2.43;;
19278;SDS011;9773;47.062;15.446;2023-05-16T05:09:29;3.07;;;2.80;;
19278;SDS011;9773;47.062;15.446;2023-05-16T05:11:55;2.83;;;2.57;;
19278;SDS011;9773;47.062;15.446;2023-05-16T05:14:20;2.20;;;2.10;;
19278;SDS011;9773;47.062;15.446;2023-05-16T05:16:46;2.20;;;2.10;;
19278;SDS011;9773;47.062;15.446;2023-05-16T05:19:12;2.57;;;2.40;;
19278;SDS011;9773;47.062;15.446;2023-05-16T05:21:37;4.90;;;2.60;;
19278;SDS011;9773;47.062;15.446;2023-05-16T05:24:03;2.20;;;2.00;;
19278;SDS011;9773;47.062;15.446;2023-05-16T05:26:29;2.37;;;2.17;;
19278;SDS011;9773;47.062;15.446;2023-05-16T05:28:55;2.60;;;2.40;;
19278;SDS011;9773;47.062;15.446;2023-05-16T05:31:21;2.87;;;2.67;;
19278;SDS011;9773;47.062;15.446;2023-05-16T05:33:47;2.50;;;2.40;;
19278;SDS011;9773;47.062;15.446;2023-05-16T05:36:12;2.90;;;2.60;;
19278;SDS011;9773;47.062;15.446;2023-05-16T05:38:38;2.80;;;2.60;;
19278;SDS011;9773;47.062;15.446;2023-05-16T05:41:04;3.07;;;2.80;;
19278;SDS011;9773;47.062;15.446;2023-05-16T05:43:31;4.57;;;2.43;;
19278;SDS011;9773;47.062;15.446;2023-05-16T05:45:57;5.17;;;2.50;;
19278;SDS011;9773;47.062;15.446;2023-05-16T05:48:22;5.57;;;3.03;;
19278;SDS011;9773;47.062;15.446;2023-05-16T05:50:48;4.30;;;3.53;;
19278;SDS011;9773;47.062;15.446;2023-05-16T05:53:14;7.60;;;3.80;;
19278;SDS011;9773;47.062;15.446;2023-05-16T05:55:40;4.27;;;3.87;;
19278;SDS011;9773;47.062;15.446;2023-05-16T05:58:06;3.20;;;2.93;;
19278;SDS011;9773;47.062;15.446;2023-05-16T06:00:32;4.37;;;3.07;;
19278;SDS011;9773;47.062;15.446;2023-05-16T06:02:58;3.63;;;3.40;;
19278;SDS011;9773;47.062;15.446;2023-05-16T06:05:23;3.20;;;3.00;;
19278;SDS011;9773;47.062;15.446;2023-05-16T06:07:49;3.43;;;2.73;;
19278;SDS011;9773;47.062;15.446;2023-05-16T06:10:15;3.63;;;3.00;;
19278;SDS011;9773;47.062;15.446;2023-05-16T06:12:40;3.30;;;3.03;;
19278;SDS011;9773;47.062;15.446;2023-05-16T06:15:06;4.13;;;3.23;;
19278;SDS011;9773;47.062;15.446;2023-05-16T06:17:33;3.07;;;2.87;;
19278;SDS011;9773;47.062;15.446;2023-05-16T06:19:58;3.47;;;3.17;;
19278;SDS011;9773;47.062;15.446;2023-05-16T06:22:24;4.43;;;3.20;;
19278;SDS011;9773;47.062;15.446;2023-05-16T06:24:50;3.33;;;3.13;;
19278;SDS011;9773;47.062;15.446;2023-05-16T06:27:16;3.10;;;2.80;;
19278;SDS011;9773;47.062;15.446;2023-05-16T06:29:41;5.17;;;3.40;;
19278;SDS011;9773;47.062;15.446;2023-05-16T06:32:07;3.70;;;3.40;;
19278;SDS011;9773;47.062;15.446;2023-05-16T06:34:33;3.57;;;3.37;;
19278;SDS011;9773;47.062;15.446;2023-05-16T06:36:59;3.60;;;3.30;;
19278;SDS011;9773;47.062;15.446;2023-05-16T06:39:27;3.40;;;3.10;;
19278;SDS011;9773;47.062;15.446;2023-05-16T06:41:53;4.40;;;3.93;;
19278;SDS011;9773;47.062;15.446;2023-05-16T06:44:20;5.70;;;3.90;;
19278;SDS011;9773;47.062;15.446;2023-05-16T06:46:47;4.47;;;3.83;;
19278;SDS011;9773;47.062;15.446;2023-05-16T06:49:12;5.87;;;3.93;;
19278;SDS011;9773;47.062;15.446;2023-05-16T06:51:38;4.83;;;4.30;;
19278;SDS011;9773;47.062;15.446;2023-05-16T06:54:04;9.30;;;6.00;;
19278;SDS011;9773;47.062;15.446;2023-05-16T06:56:30;14.97;;;5.97;;
19278;SDS011;9773;47.062;15.446;2023-05-16T06:58:56;10.07;;;6.63;;
19278;SDS011;9773;47.062;15.446;2023-05-16T07:01:22;8.53;;;5.63;;
19278;SDS011;9773;47.062;15.446;2023-05-16T07:03:47;11.53;;;5.33;;
19278;SDS011;9773;47.062;15.446;2023-05-16T07:06:13;9.03;;;5.30;;
19278;SDS011;9773;47.062;15.446;2023-05-16T07:08:39;4.50;;;4.10;;
19278;SDS011;9773;47.062;15.446;2023-05-16T07:11:05;5.30;;;3.90;;
19278;SDS011;9773;47.062;15.446;2023-05-16T07:13:30;6.07;;;4.20;;
19278;SDS011;9773;47.062;15.446;2023-05-16T07:15:56;6.93;;;4.83;;
19278;SDS011;9773;47.062;15.446;2023-05-16T07:18:22;7.73;;;4.50;;
19278;SDS011;9773;47.062;15.446;2023-05-16T07:20:48;5.70;;;4.33;;
19278;SDS011;9773;47.062;15.446;2023-05-16T07:23:13;4.80;;;4.40;;
19278;SDS011;9773;47.062;15.446;2023-05-16T07:25:39;6.70;;;4.03;;
19278;SDS011;9773;47.062;15.446;2023-05-16T07:28:05;4.97;;;4.47;;
19278;SDS011;9773;47.062;15.446;2023-05-16T07:30:31;7.77;;;4.67;;
19278;SDS011;9773;47.062;15.446;2023-05-16T07:32:56;6.77;;;4.90;;
19278;SDS011;9773;47.062;15.446;2023-05-16T07:35:23;5.27;;;4.73;;
19278;SDS011;9773;47.062;15.446;2023-05-16T07:37:50;4.57;;;4.13;;
19278;SDS011;9773;47.062;15.446;2023-05-16T07:40:16;4.87;;;4.40;;
19278;SDS011;9773;47.062;15.446;2023-05-16T07:42:42;4.80;;;4.30;;
19278;SDS011;9773;47.062;15.446;2023-05-16T07:45:08;4.93;;;4.30;;
19278;SDS011;9773;47.062;15.446;2023-05-16T07:47:34;4.00;;;3.70;;
19278;SDS011;9773;47.062;15.446;2023-05-16T07:50:00;4.07;;;3.83;;
19278;SDS011;9773;47.062;15.446;2023-05-16T07:52:26;4.10;;;3.70;;
19278;SDS011;9773;47.062;15.446;2023-05-16T07:54:51;4.10;;;3.70;;
19278;SDS011;9773;47.062;15.446;2023-05-16T07:57:17;4.60;;;4.20;;
19278;SDS011;9773;47.062;15.446;2023-05-16T07:59:43;4.70;;;4.23;;
19278;SDS011;9773;47.062;15.446;2023-05-16T08:02:09;5.10;;;4.60;;
19278;SDS011;9773;47.062;15.446;2023-05-16T08:04:35;4.67;;;4.27;;
19278;SDS011;9773;47.062;15.446;2023-05-16T08:07:01;4.60;;;4.20;;
19278;SDS011;9773;47.062;15.446;2023-05-16T08:09:27;5.40;;;4.10;;
19278;SDS011;9773;47.062;15.446;2023-05-16T08:11:53;4.70;;;4.30;;
19278;SDS011;9773;47.062;15.446;2023-05-16T08:14:19;6.43;;;4.20;;
19278;SDS011;9773;47.062;15.446;2023-05-16T08:16:45;5.17;;;4.23;;
19278;SDS011;9773;47.062;15.446;2023-05-16T08:19:11;7.97;;;4.40;;
19278;SDS011;9773;47.062;15.446;2023-05-16T08:21:37;4.93;;;4.53;;
19278;SDS011;9773;47.062;15.446;2023-05-16T08:24:03;5.57;;;4.57;;
19278;SDS011;9773;47.062;15.446;2023-05-16T08:26:29;4.40;;;4.10;;
19278;SDS011;9773;47.062;15.446;2023-05-16T08:28:56;5.13;;;4.40;;
19278;SDS011;9773;47.062;15.446;2023-05-16T08:31:22;6.43;;;4.13;;
19278;SDS011;9773;47.062;15.446;2023-05-16T08:33:47;4.97;;;4.47;;
19278;SDS011;9773;47.062;15.446;2023-05-16T08:36:13;5.70;;;4.70;;
19278;SDS011;9773;47.062;15.446;2023-05-16T08:38:40;5.03;;;4.27;;
19278;SDS011;9773;47.062;15.446;2023-05-16T08:41:05;4.60;;;4.20;;
19278;SDS011;9773;47.062;15.446;2023-05-16T08:43:31;4.93;;;4.53;;
19278;SDS011;9773;47.062;15.446;2023-05-16T08:45:59;4.73;;;4.30;;
19278;SDS011;9773;47.062;15.446;2023-05-16T08:48:25;4.87;;;4.47;;
19278;SDS011;9773;47.062;15.446;2023-05-16T08:50:52;4.47;;;4.07;;
19278;SDS011;9773;47.062;15.446;2023-05-16T08:53:20;4.43;;;4.10;;
19278;SDS011;9773;47.062;15.446;2023-05-16T08:55:50;4.43;;;4.13;;
19278;SDS011;9773;47.062;15.446;2023-05-16T08:58:17;6.63;;;4.60;;
19278;SDS011;9773;47.062;15.446;2023-05-16T09:00:44;4.73;;;4.03;;
19278;SDS011;9773;47.062;15.446;2023-05-16T09:03:10;5.03;;;4.57;;
19278;SDS011;9773;47.062;15.446;2023-05-16T09:05:36;4.57;;;4.20;;
19278;SDS011;9773;47.062;15.446;2023-05-16T09:08:02;4.30;;;4.00;;
19278;SDS011;9773;47.062;15.446;2023-05-16T09:10:28;4.27;;;3.97;;
19278;SDS011;9773;47.062;15.446;2023-05-16T09:12:54;4.07;;;3.73;;
19278;SDS011;9773;47.062;15.446;2023-05-16T09:15:20;4.23;;;3.93;;
19278;SDS011;9773;47.062;15.446;2023-05-16T09:17:46;4.63;;;4.30;;
19278;SDS011;9773;47.062;15.446;2023-05-16T09:20:16;4.27;;;3.97;;
19278;SDS011;9773;47.062;15.446;2023-05-16T09:22:50;4.57;;;4.27;;
19278;SDS011;9773;47.062;15.446;2023-05-16T09:25:16;4.23;;;3.93;;
19278;SDS011;9773;47.062;15.446;2023-05-16T09:27:42;4.77;;;4.20;;
19278;SDS011;9773;47.062;15.446;2023-05-16T09:30:12;4.97;;;4.57;;
19278;SDS011;9773;47.062;15.446;2023-05-16T09:32:45;5.37;;;4.80;;
19278;SDS011;9773;47.062;15.446;2023-05-16T09:35:14;4.10;;;3.70;;
19278;SDS011;9773;47.062;15.446;2023-05-16T09:37:44;4.37;;;4.07;;
19278;SDS011;9773;47.062;15.446;2023-05-16T09:40:14;4.27;;;3.97;;
19278;SDS011;9773;47.062;15.446;2023-05-16T09:42:41;4.83;;;3.80;;
19278;SDS011;9773;47.062;15.446;2023-05-16T09:45:11;4.33;;;3.93;;
19278;SDS011;9773;47.062;15.446;2023-05-16T09:47:38;4.53;;;4.20;;
19278;SDS011;9773;47.062;15.446;2023-05-16T09:50:10;4.87;;;4.47;;
19278;SDS011;9773;47.062;15.446;2023-05-16T09:52:39;4.50;;;4.10;;
19278;SDS011;9773;47.062;15.446;2023-05-16T09:55:06;4.63;;;4.20;;
19278;SDS011;9773;47.062;15.446;2023-05-16T09:57:32;6.83;;;4.33;;
19278;SDS011;9773;47.062;15.446;2023-05-16T10:00:03;4.03;;;3.63;;
19278;SDS011;9773;47.062;15.446;2023-05-16T10:02:32;4.33;;;4.03;;
19278;SDS011;9773;47.062;15.446;2023-05-16T10:04:59;4.23;;;3.93;;
19278;SDS011;9773;47.062;15.446;2023-05-16T10:07:25;5.17;;;4.50;;
19278;SDS011;9773;47.062;15.446;2023-05-16T10:09:52;4.73;;;4.33;;
19278;SDS011;9773;47.062;15.446;2023-05-16T10:12:19;4.63;;;4.23;;
19278;SDS011;9773;47.062;15.446;2023-05-16T10:14:52;4.83;;;4.40;;
19278;SDS011;9773;47.062;15.446;2023-05-16T10:17:18;4.33;;;3.93;;
19278;SDS011;9773;47.062;15.446;2023-05-16T10:19:44;4.27;;;3.87;;
19278;SDS011;9773;47.062;15.446;2023-05-16T10:22:11;4.00;;;3.70;;
19278;SDS011;9773;47.062;15.446;2023-05-16T10:24:51;4.53;;;3.93;;
19278;SDS011;9773;47.062;15.446;2023-05-16T10:27:23;3.90;;;3.60;;
19278;SDS011;9773;47.062;15.446;2023-05-16T10:29:50;4.70;;;4.30;;
19278;SDS011;9773;47.062;15.446;2023-05-16T10:32:17;4.67;;;4.10;;
19278;SDS011;9773;47.062;15.446;2023-05-16T10:34:44;4.50;;;4.10;;
19278;SDS011;9773;47.062;15.446;2023-05-16T10:37:10;4.57;;;4.27;;
19278;SDS011;9773;47.062;15.446;2023-05-16T10:39:37;4.90;;;4.50;;
19278;SDS011;9773;47.062;15.446;2023-05-16T10:42:04;4.57;;;4.17;;
19278;SDS011;9773;47.062;15.446;2023-05-16T10:44:31;4.30;;;4.00;;
19278;SDS011;9773;47.062;15.446;2023-05-16T10:46:58;6.73;;;4.70;;
19278;SDS011;9773;47.062;15.446;2023-05-16T10:49:25;4.73;;;4.37;;
19278;SDS011;9773;47.062;15.446;2023-05-16T10:52:01;5.00;;;4.50;;
19278;SDS011;9773;47.062;15.446;2023-05-16T10:54:39;5.23;;;4.20;;
19278;SDS011;9773;47.062;15.446;2023-05-16T10:57:10;4.57;;;4.17;;
19278;SDS011;9773;47.062;15.446;2023-05-16T10:59:44;4.93;;;4.43;;
19278;SDS011;9773;47.062;15.446;2023-05-16T11:04:55;4.20;;;3.90;;
19278;SDS011;9773;47.062;15.446;2023-05-16T11:07:24;4.53;;;4.23;;
19278;SDS011;9773;47.062;15.446;2023-05-16T11:12:49;4.40;;;4.07;;
19278;SDS011;9773;47.062;15.446;2023-05-16T11:15:26;4.67;;;4.27;;
19278;SDS011;9773;47.062;15.446;2023-05-16T11:18:07;4.67;;;4.10;;
19278;SDS011;9773;47.062;15.446;2023-05-16T11:20:35;4.47;;;4.07;;
19278;SDS011;9773;47.062;15.446;2023-05-16T11:25:46;8.60;;;3.90;;
19278;SDS011;9773;47.062;15.446;2023-05-16T11:28:15;3.90;;;3.60;;
19278;SDS011;9773;47.062;15.446;2023-05-16T11:30:44;4.00;;;3.70;;
19278;SDS011;9773;47.062;15.446;2023-05-16T11:33:11;3.30;;;3.10;;
19278;SDS011;9773;47.062;15.446;2023-05-16T11:35:37;3.60;;;3.40;;
19278;SDS011;9773;47.062;15.446;2023-05-16T11:38:03;3.50;;;3.30;;
19278;SDS011;9773;47.062;15.446;2023-05-16T11:40:29;3.70;;;3.50;;
19278;SDS011;9773;47.062;15.446;2023-05-16T11:42:58;4.17;;;3.87;;
19278;SDS011;9773;47.062;15.446;2023-05-16T11:45:24;3.37;;;3.17;;
19278;SDS011;9773;47.062;15.446;2023-05-16T11:47:50;3.77;;;3.47;;
19278;SDS011;9773;47.062;15.446;2023-05-16T11:50:17;3.40;;;3.20;;
19278;SDS011;9773;47.062;15.446;2023-05-16T11:52:45;3.60;;;3.40;;
19278;SDS011;9773;47.062;15.446;2023-05-16T11:55:12;3.40;;;3.20;;
19278;SDS011;9773;47.062;15.446;2023-05-16T11:57:40;3.27;;;3.07;;
19278;SDS011;9773;47.062;15.446;2023-05-16T12:00:13;3.07;;;2.87;;
19278;SDS011;9773;47.062;15.446;2023-05-16T12:02:40;4.03;;;3.33;;
19278;SDS011;9773;47.062;15.446;2023-05-16T12:05:09;4.37;;;3.27;;
19278;SDS011;9773;47.062;15.446;2023-05-16T12:07:38;3.20;;;3.00;;
19278;SDS011;9773;47.062;15.446;2023-05-16T12:10:08;2.70;;;2.60;;
19278;SDS011;9773;47.062;15.446;2023-05-16T12:12:36;2.60;;;2.50;;
19278;SDS011;9773;47.062;15.446;2023-05-16T12:15:04;2.80;;;2.70;;
19278;SDS011;9773;47.062;15.446;2023-05-16T12:17:36;3.37;;;2.80;;
19278;SDS011;9773;47.062;15.446;2023-05-16T12:20:04;2.67;;;2.57;;
19278;SDS011;9773;47.062;15.446;2023-05-16T12:22:32;2.70;;;2.60;;
19278;SDS011;9773;47.062;15.446;2023-05-16T12:24:58;2.30;;;2.20;;
19278;SDS011;9773;47.062;15.446;2023-05-16T12:27:25;2.37;;;2.27;;
19278;SDS011;9773;47.062;15.446;2023-05-16T12:29:51;2.47;;;2.37;;
19278;SDS011;9773;47.062;15.446;2023-05-16T12:32:20;2.23;;;2.13;;
19278;SDS011;9773;47.062;15.446;2023-05-16T12:34:49;2.23;;;2.13;;
19278;SDS011;9773;47.062;15.446;2023-05-16T12:37:16;2.37;;;2.27;;
19278;SDS011;9773;47.062;15.446;2023-05-16T12:39:42;6.10;;;2.20;;
19278;SDS011;9773;47.062;15.446;2023-05-16T12:42:11;2.63;;;2.53;;
19278;SDS011;9773;47.062;15.446;2023-05-16T12:44:37;2.30;;;2.20;;
19278;SDS011;9773;47.062;15.446;2023-05-16T12:47:10;2.10;;;2.00;;
19278;SDS011;9773;47.062;15.446;2023-05-16T12:49:43;2.77;;;2.57;;
19278;SDS011;9773;47.062;15.446;2023-05-16T12:52:11;2.20;;;2.10;;
19278;SDS011;9773;47.062;15.446;2023-05-16T12:54:43;2.10;;;1.90;;
19278;SDS011;9773;47.062;15.446;2023-05-16T12:57:09;2.23;;;2.13;;
19278;SDS011;9773;47.062;15.446;2023-05-16T12:59:35;2.20;;;2.10;;
19278;SDS011;9773;47.062;15.446;2023-05-16T13:02:01;2.17;;;2.07;;
19278;SDS011;9773;47.062;15.446;2023-05-16T13:04:27;2.20;;;2.10;;
19278;SDS011;9773;47.062;15.446;2023-05-16T13:06:54;1.73;;;1.73;;
19278;SDS011;9773;47.062;15.446;2023-05-16T13:09:19;2.53;;;2.33;;
19278;SDS011;9773;47.062;15.446;2023-05-16T13:11:45;2.10;;;1.90;;
19278;SDS011;9773;47.062;15.446;2023-05-16T13:14:12;2.07;;;1.90;;
19278;SDS011;9773;47.062;15.446;2023-05-16T13:16:38;2.00;;;1.90;;
19278;SDS011;9773;47.062;15.446;2023-05-16T13:19:03;2.50;;;2.40;;
19278;SDS011;9773;47.062;15.446;2023-05-16T13:21:30;1.97;;;1.87;;
19278;SDS011;9773;47.062;15.446;2023-05-16T13:23:56;2.60;;;1.97;;
19278;SDS011;9773;47.062;15.446;2023-05-16T13:26:23;1.93;;;1.90;;
19278;SDS011;9773;47.062;15.446;2023-05-16T13:28:49;1.80;;;1.70;;
19278;SDS011;9773;47.062;15.446;2023-05-16T13:31:17;2.27;;;2.17;;
19278;SDS011;9773;47.062;15.446;2023-05-16T13:33:43;1.77;;;1.73;;
19278;SDS011;9773;47.062;15.446;2023-05-16T13:36:09;2.00;;;1.90;;
19278;SDS011;9773;47.062;15.446;2023-05-16T13:38:35;2.10;;;2.00;;
19278;SDS011;9773;47.062;15.446;2023-05-16T13:41:01;2.30;;;2.20;;
19278;SDS011;9773;47.062;15.446;2023-05-16T13:43:26;1.90;;;1.87;;
19278;SDS011;9773;47.062;15.446;2023-05-16T13:45:52;2.20;;;2.00;;
19278;SDS011;9773;47.062;15.446;2023-05-16T13:48:18;1.80;;;1.70;;
19278;SDS011;9773;47.062;15.446;2023-05-16T13:50:44;1.77;;;1.70;;
19278;SDS011;9773;47.062;15.446;2023-05-16T13:53:11;1.87;;;1.87;;
19278;SDS011;9773;47.062;15.446;2023-05-16T13:55:36;1.70;;;1.70;;
19278;SDS011;9773;47.062;15.446;2023-05-16T13:58:02;1.80;;;1.80;;
19278;SDS011;9773;47.062;15.446;2023-05-16T14:00:28;2.20;;;2.10;;
19278;SDS011;9773;47.062;15.446;2023-05-16T14:02:54;2.10;;;1.90;;
19278;SDS011;9773;47.062;15.446;2023-05-16T14:05:20;2.10;;;2.00;;
19278;SDS011;9773;47.062;15.446;2023-05-16T14:07:46;2.83;;;2.63;;
19278;SDS011;9773;47.062;15.446;2023-05-16T14:10:12;2.83;;;2.47;;
19278;SDS011;9773;47.062;15.446;2023-05-16T14:12:38;2.30;;;2.20;;
19278;SDS011;9773;47.062;15.446;2023-05-16T14:15:04;2.27;;;2.17;;
19278;SDS011;9773;47.062;15.446;2023-05-16T14:17:31;2.00;;;1.90;;
19278;SDS011;9773;47.062;15.446;2023-05-16T14:19:57;1.93;;;1.83;;
19278;SDS011;9773;47.062;15.446;2023-05-16T14:22:22;2.20;;;2.00;;
19278;SDS011;9773;47.062;15.446;2023-05-16T14:24:48;2.13;;;2.03;;
19278;SDS011;9773;47.062;15.446;2023-05-16T14:27:14;1.90;;;1.80;;
19278;SDS011;9773;47.062;15.446;2023-05-16T14:29:41;2.20;;;2.10;;
19278;SDS011;9773;47.062;15.446;2023-05-16T14:32:08;2.30;;;2.20;;
19278;SDS011;9773;47.062;15.446;2023-05-16T14:34:35;2.10;;;2.00;;
19278;SDS011;9773;47.062;15.446;2023-05-16T14:37:01;3.10;;;2.50;;
19278;SDS011;9773;47.062;15.446;2023-05-16T14:39:27;2.40;;;2.30;;
19278;SDS011;9773;47.062;15.446;2023-05-16T14:41:53;2.30;;;2.20;;
19278;SDS011;9773;47.062;15.446;2023-05-16T14:44:18;2.27;;;2.07;;
19278;SDS011;9773;47.062;15.446;2023-05-16T14:46:45;2.97;;;2.60;;
19278;SDS011;9773;47.062;15.446;2023-05-16T14:49:11;2.30;;;2.20;;
19278;SDS011;9773;47.062;15.446;2023-05-16T14:51:37;2.50;;;2.40;;
19278;SDS011;9773;47.062;15.446;2023-05-16T14:54:03;3.03;;;2.83;;
19278;SDS011;9773;47.062;15.446;2023-05-16T14:56:29;2.37;;;2.27;;
19278;SDS011;9773;47.062;15.446;2023-05-16T14:58:56;2.63;;;2.43;;
19278;SDS011;9773;47.062;15.446;2023-05-16T15:01:22;2.83;;;2.63;;
19278;SDS011;9773;47.062;15.446;2023-05-16T15:03:48;2.33;;;2.23;;
19278;SDS011;9773;47.062;15.446;2023-05-16T15:06:13;2.20;;;2.10;;